Time;durP1;ratioP1;P1;durP2;ratioP2;P2;SDS_P1;SDS_P2;PMS_P1;PMS_P2;Temp;Humidity;BMP_temperature;BMP_pressure;BME280_temperature;BME280_humidity;BME280_pressure;Samples;Min_cycle;Max_cycle;Signal;HPM_P1;HPM_P2
2022/03/07 00:01:10;;;;;;;7.43;3.53;;;;;;;0.43;74.60;94495.19;5070936;28;20029;-73
2022/03/07 00:03:36;;;;;;;6.88;3.10;;;;;;;0.49;74.06;94506.03;5071086;28;20040;-73
2022/03/07 00:06:01;;;;;;;7.07;3.22;;;;;;;0.48;74.31;94499.25;5054282;28;20035;-73
2022/03/07 00:08:28;;;;;;;8.18;4.00;;;;;;;0.35;73.66;94481.94;5054279;28;20039;-73
2022/03/07 00:10:53;;;;;;;7.93;3.90;;;;;;;0.48;74.45;94502.63;5054179;28;20414;-73
2022/03/07 00:13:18;;;;;;;6.80;3.70;;;;;;;0.41;73.82;94504.66;5071002;28;20028;-73
2022/03/07 00:15:44;;;;;;;6.45;3.40;;;;;;;0.41;72.29;94491.88;5070788;28;20043;-73
2022/03/07 00:18:09;;;;;;;6.57;3.33;;;;;;;0.47;72.92;94505.25;5070781;28;20040;-73
2022/03/07 00:20:35;;;;;;;7.50;3.15;;;;;;;0.47;73.72;94495.84;5070744;28;20082;-73
2022/03/07 00:23:00;;;;;;;12.43;5.20;;;;;;;0.42;74.07;94501.22;5054077;28;20118;-73
2022/03/07 00:25:25;;;;;;;10.90;4.57;;;;;;;0.41;74.81;94491.88;5071389;28;20074;-73
2022/03/07 00:27:51;;;;;;;15.30;6.57;;;;;;;0.37;74.44;94490.38;5070666;28;20426;-73
2022/03/07 00:30:18;;;;;;;9.27;3.65;;;;;;;0.39;74.60;94492.84;5053891;28;20556;-73
2022/03/07 00:32:43;;;;;;;6.95;3.10;;;;;;;0.37;73.41;94489.56;5071827;28;20032;-73
2022/03/07 00:35:10;;;;;;;9.40;3.60;;;;;;;0.41;73.52;94488.50;5070529;28;20067;-73
2022/03/07 00:37:36;;;;;;;9.25;4.72;;;;;;;0.39;73.07;94487.72;5070443;28;20035;-73
2022/03/07 00:40:02;;;;;;;7.00;3.53;;;;;;;0.37;73.33;94484.44;5070333;28;20037;-73
2022/03/07 00:42:27;;;;;;;8.27;3.88;;;;;;;0.37;72.73;94485.25;5053538;28;20036;-73
2022/03/07 00:44:52;;;;;;;7.47;3.13;;;;;;;0.37;73.73;94485.25;5078832;28;20024;-73
2022/03/07 00:47:18;;;;;;;5.82;3.08;;;;;;;0.35;73.67;94476.84;5090421;28;20051;-74
2022/03/07 00:49:43;;;;;;;7.40;3.42;;;;;;;0.35;73.85;94470.91;5090505;28;20040;-73
2022/03/07 00:52:09;;;;;;;7.20;3.03;;;;;;;0.40;74.48;94471.50;5073546;28;20417;-73
2022/03/07 00:54:34;;;;;;;6.82;3.50;;;;;;;0.42;74.02;94473.09;5073659;28;20039;-73
2022/03/07 00:57:00;;;;;;;6.43;3.22;;;;;;;0.43;74.09;94469.63;5073421;28;20031;-73
2022/03/07 00:59:25;;;;;;;6.05;3.40;;;;;;;0.44;74.54;94473.81;5073638;28;20024;-73
2022/03/07 01:01:51;;;;;;;6.10;3.13;;;;;;;0.43;74.60;94466.25;5090252;28;20048;-73
2022/03/07 01:04:16;;;;;;;8.45;3.70;;;;;;;0.41;75.61;94461.19;5090446;28;20031;-73
2022/03/07 01:06:42;;;;;;;8.02;3.65;;;;;;;0.42;74.49;94455.22;5091381;28;20024;-74
2022/03/07 01:09:07;;;;;;;7.50;3.53;;;;;;;0.40;74.72;94459.56;5090233;28;20040;-73
2022/03/07 01:11:33;;;;;;;7.38;3.42;;;;;;;0.29;74.12;94433.69;5091595;28;20024;-73
2022/03/07 01:13:58;;;;;;;7.40;3.33;;;;;;;0.43;74.87;94451.72;5090204;28;20391;-73
2022/03/07 01:16:24;;;;;;;7.53;3.05;;;;;;;0.39;74.83;94445.13;5090047;28;20028;-73
2022/03/07 01:18:49;;;;;;;5.43;2.72;;;;;;;0.42;74.85;94452.66;5091671;28;20044;-73
2022/03/07 01:21:14;;;;;;;7.10;3.35;;;;;;;0.30;75.16;94431.97;5091163;28;20501;-73
2022/03/07 01:23:40;;;;;;;6.70;3.33;;;;;;;0.42;75.45;94449.28;5091495;28;20222;-74
2022/03/07 01:26:05;;;;;;;7.13;3.47;;;;;;;0.43;75.49;94449.19;5091123;28;20024;-73
2022/03/07 01:28:31;;;;;;;8.10;3.80;;;;;;;0.46;75.35;94447.38;5073014;28;20040;-73
2022/03/07 01:30:56;;;;;;;8.05;3.83;;;;;;;0.40;75.34;94444.22;5089713;28;20031;-73
2022/03/07 01:33:21;;;;;;;8.75;4.22;;;;;;;0.44;75.26;94458.50;5073131;28;20032;-73
2022/03/07 01:35:47;;;;;;;7.78;4.13;;;;;;;0.44;75.20;94455.94;5091016;28;20032;-73
2022/03/07 01:38:12;;;;;;;8.77;4.03;;;;;;;0.39;75.81;94447.69;5088711;28;20032;-73
2022/03/07 01:40:38;;;;;;;7.10;3.60;;;;;;;0.44;75.86;94455.94;5089848;28;20032;-73
2022/03/07 01:43:06;;;;;;;7.57;3.38;;;;;;;0.44;75.60;94448.25;5091159;28;20082;-73
2022/03/07 01:45:31;;;;;;;6.95;3.65;;;;;;;0.45;76.17;94451.69;5069663;28;20037;-74
2022/03/07 01:47:56;;;;;;;7.22;3.58;;;;;;;0.42;76.05;94442.44;5069596;28;20031;-73
2022/03/07 01:50:22;;;;;;;8.55;4.18;;;;;;;0.50;75.17;94447.13;5070621;28;20037;-73
2022/03/07 01:52:50;;;;;;;7.07;3.67;;;;;;;0.44;73.37;94435.50;5052757;28;20040;-73
2022/03/07 01:55:16;;;;;;;7.20;3.20;;;;;;;0.46;74.21;94440.53;5036640;28;20036;-73
2022/03/07 01:57:42;;;;;;;7.03;3.45;;;;;;;0.46;74.22;94443.09;5069413;28;20036;-73
2022/03/07 02:00:16;;;;;;;7.53;3.70;;;;;;;0.44;71.24;94429.56;5070544;28;20107;-73
2022/03/07 02:02:42;;;;;;;8.75;3.67;;;;;;;0.47;71.79;94444.72;5069695;28;20064;-73
2022/03/07 02:05:08;;;;;;;7.53;3.38;;;;;;;0.46;71.97;94448.19;5069285;28;20028;-74
2022/03/07 02:07:34;;;;;;;8.35;3.67;;;;;;;0.44;71.01;94443.16;5069250;28;20384;-73
2022/03/07 02:09:59;;;;;;;6.38;3.40;;;;;;;0.39;71.90;94437.47;5069230;28;20499;-73
2022/03/07 02:12:25;;;;;;;7.30;3.70;;;;;;;0.43;73.40;94449.19;5070351;28;20037;-73
2022/03/07 02:14:50;;;;;;;7.05;3.60;;;;;;;0.37;73.97;94439.25;5069347;28;20418;-73
2022/03/07 02:17:16;;;;;;;9.27;4.03;;;;;;;0.38;73.97;94435.78;5069283;28;20406;-73
2022/03/07 02:19:42;;;;;;;7.18;3.65;;;;;;;0.41;74.27;94443.31;5069432;28;20028;-73
2022/03/07 02:22:08;;;;;;;6.95;3.20;;;;;;;0.40;74.46;94443.41;5070340;28;20379;-73
2022/03/07 02:24:33;;;;;;;7.75;3.42;;;;;;;0.42;74.75;94442.44;5052741;28;20048;-73
2022/03/07 02:27:05;;;;;;;6.13;3.55;;;;;;;0.38;75.00;94430.69;5069110;28;20021;-74
2022/03/07 02:29:31;;;;;;;8.63;3.60;;;;;;;0.40;74.10;94444.22;5052816;28;20033;-73
2022/03/07 02:31:56;;;;;;;7.45;3.30;;;;;;;0.39;74.00;94429.81;5052359;28;20035;-74
2022/03/07 02:34:22;;;;;;;7.47;3.65;;;;;;;0.46;74.41;94442.28;5069246;28;20067;-73
2022/03/07 02:36:47;;;;;;;7.05;3.45;;;;;;;0.40;74.25;94428.88;5068877;28;20021;-73
2022/03/07 02:39:13;;;;;;;7.30;3.88;;;;;;;0.45;73.55;94436.34;5068838;28;20063;-73
2022/03/07 02:41:39;;;;;;;6.72;3.40;;;;;;;0.43;73.93;94436.41;5052324;28;20031;-73
2022/03/07 02:44:04;;;;;;;9.48;3.55;;;;;;;0.45;74.01;94438.91;5054006;28;20044;-73
2022/03/07 02:46:30;;;;;;;7.00;3.70;;;;;;;0.43;74.49;94438.97;5090331;28;20046;-73
2022/03/07 02:48:55;;;;;;;6.55;3.20;;;;;;;0.43;74.33;94433.84;5091579;28;20040;-73
2022/03/07 02:51:21;;;;;;;7.53;3.70;;;;;;;0.37;73.65;94434.16;5094008;28;20520;-73
2022/03/07 02:53:46;;;;;;;8.55;3.08;;;;;;;0.38;73.94;94438.34;5094259;28;20043;-73
2022/03/07 02:56:11;;;;;;;7.07;3.58;;;;;;;0.44;74.61;94435.50;5092678;28;20028;-74
2022/03/07 02:58:37;;;;;;;6.35;3.45;;;;;;;0.42;74.84;94436.50;5092709;28;20036;-73
2022/03/07 03:01:02;;;;;;;6.60;3.17;;;;;;;0.43;75.09;94433.03;5092594;28;20039;-73
2022/03/07 03:03:28;;;;;;;6.78;3.33;;;;;;;0.37;75.13;94429.03;5093771;28;20512;-73
2022/03/07 03:05:54;;;;;;;9.30;3.50;;;;;;;0.45;73.87;94438.91;5093674;28;20456;-73
2022/03/07 03:08:21;;;;;;;7.68;3.30;;;;;;;0.44;73.97;94444.88;5092573;28;20028;-73
2022/03/07 03:10:48;;;;;;;6.38;3.10;;;;;;;0.44;74.75;94439.78;5092332;28;20046;-73
2022/03/07 03:13:13;;;;;;;5.00;2.88;;;;;;;0.42;75.24;94442.44;5093745;28;20032;-73
2022/03/07 03:15:39;;;;;;;6.80;3.40;;;;;;;0.40;75.24;94453.63;5092379;28;20035;-73
2022/03/07 03:18:04;;;;;;;7.32;3.53;;;;;;;0.39;75.37;94439.16;5093601;28;20394;-73
2022/03/07 03:20:29;;;;;;;7.80;3.63;;;;;;;0.40;75.68;94444.22;5093418;28;20081;-73
2022/03/07 03:22:55;;;;;;;4.75;3.00;;;;;;;0.42;75.67;94439.88;5075380;28;20032;-73
2022/03/07 03:25:20;;;;;;;6.80;3.25;;;;;;;0.42;76.09;94452.66;5075269;28;20047;-73
2022/03/07 03:27:46;;;;;;;6.75;3.15;;;;;;;0.43;75.99;94448.34;5092129;28;20031;-73
2022/03/07 03:30:12;;;;;;;7.28;3.45;;;;;;;0.46;75.97;94447.38;5091911;28;20055;-73
2022/03/07 03:32:37;;;;;;;5.50;3.33;;;;;;;0.46;75.47;94449.94;5092065;28;20051;-73
2022/03/07 03:35:03;;;;;;;6.68;3.92;;;;;;;0.44;75.75;94450.81;5092000;28;20028;-73
2022/03/07 03:37:28;;;;;;;5.75;2.95;;;;;;;0.41;75.44;94448.41;5075001;28;20060;-73
2022/03/07 03:39:54;;;;;;;6.30;3.20;;;;;;;0.38;76.04;94452.88;5091956;28;20056;-73
2022/03/07 03:42:21;;;;;;;6.43;2.80;;;;;;;0.37;76.12;94454.59;5091716;28;20024;-73
2022/03/07 03:44:47;;;;;;;7.07;3.28;;;;;;;0.30;75.94;94442.19;5083984;28;20062;-73
2022/03/07 03:47:12;;;;;;;6.10;3.15;;;;;;;0.31;76.08;94452.34;5071421;28;20056;-73
2022/03/07 03:49:37;;;;;;;6.47;3.33;;;;;;;0.22;75.96;94442.56;5071502;28;20044;-73
2022/03/07 03:52:04;;;;;;;7.22;3.90;;;;;;;0.26;76.49;94449.19;5071295;28;20035;-73
2022/03/07 03:54:30;;;;;;;7.05;3.92;;;;;;;0.19;76.29;94435.03;5054864;28;20036;-73
2022/03/07 03:56:55;;;;;;;7.68;3.47;;;;;;;0.19;76.32;94448.63;5054490;28;20402;-73
2022/03/07 03:59:21;;;;;;;5.43;2.80;;;;;;;0.20;76.29;94457.97;5071475;28;20039;-73
2022/03/07 04:01:47;;;;;;;7.88;3.95;;;;;;;0.19;76.33;94452.91;5036912;28;20478;-73
2022/03/07 04:04:12;;;;;;;6.53;3.50;;;;;;;0.17;76.44;94445.34;5054708;28;20036;-73
2022/03/07 04:06:39;;;;;;;8.05;3.80;;;;;;;0.24;76.48;94448.41;5054380;28;20037;-73
2022/03/07 04:09:04;;;;;;;7.07;4.18;;;;;;;0.27;76.76;94450.81;5071181;28;20127;-73
2022/03/07 04:11:29;;;;;;;9.55;5.97;;;;;;;0.28;76.17;94449.09;5072179;28;20383;-73
2022/03/07 04:13:55;;;;;;;11.32;6.18;;;;;;;0.30;75.92;94445.56;5071074;28;20033;-73
2022/03/07 04:16:20;;;;;;;9.60;5.60;;;;;;;0.26;76.11;94449.19;5054217;28;20098;-73
2022/03/07 04:18:46;;;;;;;10.25;5.63;;;;;;;0.31;76.39;94447.22;5072397;28;20047;-73
2022/03/07 04:21:11;;;;;;;12.90;8.02;;;;;;;0.22;76.23;94440.84;5071981;28;20041;-72
2022/03/07 04:23:36;;;;;;;67.07;42.80;;;;;;;0.28;76.05;94452.50;5054160;28;20025;-72
2022/03/07 04:26:02;;;;;;;105.00;63.13;;;;;;;0.35;75.87;94453.84;5070699;28;20044;-72
2022/03/07 04:28:27;;;;;;;20.40;13.77;;;;;;;0.37;75.87;94464.00;5072038;28;20032;-72
2022/03/07 04:30:53;;;;;;;11.02;6.65;;;;;;;0.34;76.23;94448.81;5070633;28;20035;-72
2022/03/07 04:33:18;;;;;;;12.98;8.07;;;;;;;0.29;75.91;94451.59;5071943;28;20463;-72
2022/03/07 04:35:44;;;;;;;9.63;5.40;;;;;;;0.26;76.08;94456.03;5071749;28;20025;-72
2022/03/07 04:38:09;;;;;;;10.23;5.70;;;;;;;0.13;76.23;94446.38;5070375;28;20032;-72
2022/03/07 04:40:35;;;;;;;11.13;6.57;;;;;;;0.22;76.13;94456.19;5070423;28;20024;-72
2022/03/07 04:43:01;;;;;;;19.08;12.65;;;;;;;0.16;76.16;94448.78;5053691;28;20036;-72
2022/03/07 04:45:26;;;;;;;13.90;8.50;;;;;;;0.16;75.95;94456.44;5084812;28;20154;-72
2022/03/07 04:47:52;;;;;;;12.57;7.80;;;;;;;0.09;75.57;94447.44;5090558;28;20549;-72
2022/03/07 04:50:17;;;;;;;18.90;11.88;;;;;;;0.12;76.20;94459.25;5090457;28;20032;-72
2022/03/07 04:52:43;;;;;;;23.70;15.10;;;;;;;0.18;76.14;94462.31;5091793;28;20086;-71
2022/03/07 04:55:12;;;;;;;15.20;10.05;;;;;;;0.19;75.92;94455.47;5073641;28;20621;-72
2022/03/07 04:57:37;;;;;;;11.13;6.93;;;;;;;0.19;75.73;94458.03;5073626;28;20039;-72
2022/03/07 05:00:07;;;;;;;17.27;8.75;;;;;;;0.12;75.69;94447.28;5090377;28;20040;-71
2022/03/07 05:02:33;;;;;;;12.63;7.90;;;;;;;0.12;75.62;94454.13;5073923;28;20112;-72
2022/03/07 05:04:58;;;;;;;22.10;10.63;;;;;;;0.14;75.88;94459.97;5091526;28;20024;-72
2022/03/07 05:07:24;;;;;;;37.80;14.48;;;;;;;0.17;75.69;94460.69;5090144;28;20016;-72
2022/03/07 05:09:49;;;;;;;19.33;10.68;;;;;;;0.20;75.41;94459.69;5090052;28;20228;-72
2022/03/07 05:12:15;;;;;;;15.40;8.35;;;;;;;0.30;75.35;94460.91;5072941;28;20390;-72
2022/03/07 05:14:40;;;;;;;11.13;6.75;;;;;;;0.24;75.12;94466.31;5091881;28;20028;-72
2022/03/07 05:17:05;;;;;;;14.32;7.85;;;;;;;0.23;75.59;94464.66;5091244;28;20035;-72
2022/03/07 05:19:31;;;;;;;12.15;7.30;;;;;;;0.24;75.28;94462.94;5091750;28;20475;-72
2022/03/07 05:21:56;;;;;;;13.10;7.07;;;;;;;0.25;75.70;94462.84;5073105;28;20024;-72
2022/03/07 05:24:22;;;;;;;12.30;7.38;;;;;;;0.27;75.24;94460.22;5091611;28;20452;-72
2022/03/07 05:26:47;;;;;;;12.90;7.32;;;;;;;0.25;76.06;94455.19;5056281;28;20460;-72
2022/03/07 05:29:13;;;;;;;13.18;8.25;;;;;;;0.26;76.43;94456.03;5089942;28;20070;-72
2022/03/07 05:31:39;;;;;;;19.88;10.55;;;;;;;0.36;76.17;94462.31;5089690;28;20514;-73
2022/03/07 05:34:04;;;;;;;18.08;10.18;;;;;;;0.34;75.63;94464.97;5072922;28;20043;-73
2022/03/07 05:36:30;;;;;;;20.67;11.15;;;;;;;0.36;75.46;94463.19;5089767;28;20039;-72
2022/03/07 05:38:55;;;;;;;16.58;10.48;;;;;;;0.29;75.98;94459.25;5090945;28;20060;-72
2022/03/07 05:41:21;;;;;;;15.85;9.80;;;;;;;0.35;75.93;94479.38;5090731;28;20045;-73
2022/03/07 05:43:46;;;;;;;16.02;9.68;;;;;;;0.39;75.47;94473.25;5089650;28;20468;-72
2022/03/07 05:46:13;;;;;;;15.98;9.25;;;;;;;0.35;75.52;94468.34;5069979;28;20118;-73
2022/03/07 05:48:38;;;;;;;14.90;9.32;;;;;;;0.32;75.45;94464.22;5074375;28;20085;-72
2022/03/07 05:51:03;;;;;;;16.63;9.57;;;;;;;0.28;75.80;94469.53;5072816;28;20020;-74
2022/03/07 05:53:29;;;;;;;13.60;8.85;;;;;;;0.32;75.63;94468.50;5070039;28;20040;-74
2022/03/07 05:55:54;;;;;;;17.30;9.50;;;;;;;0.32;75.80;94465.94;5090747;28;20028;-74
2022/03/07 05:58:20;;;;;;;17.63;9.77;;;;;;;0.31;76.01;94461.75;5089706;28;20511;-74
2022/03/07 06:00:45;;;;;;;17.63;9.73;;;;;;;0.35;75.67;94461.50;5072834;28;20374;-74
2022/03/07 06:03:11;;;;;;;15.40;9.90;;;;;;;0.37;75.38;94457.16;5072734;28;20036;-73
2022/03/07 06:05:36;;;;;;;17.58;9.93;;;;;;;0.41;75.81;94473.16;5089586;28;20028;-73
2022/03/07 06:08:03;;;;;;;14.30;9.68;;;;;;;0.40;76.28;94472.34;5072699;28;20036;-73
2022/03/07 06:10:28;;;;;;;15.68;11.23;;;;;;;0.43;76.28;94471.38;5072663;28;20482;-73
2022/03/07 06:12:54;;;;;;;20.98;13.13;;;;;;;0.51;76.38;94471.81;5089509;28;20097;-73
2022/03/07 06:15:19;;;;;;;26.80;13.30;;;;;;;0.50;76.13;94464.22;5089466;28;20418;-73
2022/03/07 06:17:50;;;;;;;40.40;16.65;;;;;;;0.54;75.70;94475.94;5072559;28;20071;-73
2022/03/07 06:20:15;;;;;;;29.55;15.00;;;;;;;0.49;76.05;94465.13;5072638;28;20024;-74
2022/03/07 06:22:40;;;;;;;24.33;14.93;;;;;;;0.52;76.17;94477.75;5089441;28;20452;-73
2022/03/07 06:25:06;;;;;;;22.50;12.55;;;;;;;0.61;76.10;94478.13;5082303;28;20024;-73
2022/03/07 06:27:32;;;;;;;33.28;15.48;;;;;;;0.62;75.52;94474.66;5085388;28;20544;-74
2022/03/07 06:29:57;;;;;;;24.55;13.95;;;;;;;0.62;75.82;94478.97;5074471;28;20028;-73
2022/03/07 06:32:24;;;;;;;20.40;12.05;;;;;;;0.60;75.26;94480.75;5092923;28;20101;-73
2022/03/07 06:34:50;;;;;;;15.50;9.25;;;;;;;0.61;74.80;94478.13;5076484;28;20038;-74
2022/03/07 06:37:15;;;;;;;12.57;7.63;;;;;;;0.57;74.92;94474.06;5094286;28;20023;-73
2022/03/07 06:39:41;;;;;;;10.45;6.15;;;;;;;0.50;74.61;94484.66;5092852;28;20041;-74
2022/03/07 06:42:07;;;;;;;10.48;6.20;;;;;;;0.37;74.83;94474.22;5093957;28;20032;-73
2022/03/07 06:44:33;;;;;;;8.88;5.60;;;;;;;0.27;74.95;94475.56;5094613;28;20028;-73
2022/03/07 06:46:59;;;;;;;9.52;6.15;;;;;;;0.33;75.10;94478.63;5075986;28;20036;-74
2022/03/07 06:49:24;;;;;;;12.68;8.38;;;;;;;0.30;75.14;94477.97;5075561;28;20049;-73
2022/03/07 06:51:50;;;;;;;13.68;7.72;;;;;;;0.27;75.37;94467.88;5058805;28;20398;-73
2022/03/07 06:54:15;;;;;;;18.42;9.05;;;;;;;0.19;74.89;94465.69;5092219;28;20028;-73
2022/03/07 06:56:40;;;;;;;25.85;12.15;;;;;;;0.12;75.86;94467.72;5079246;28;20509;-74
2022/03/07 06:59:06;;;;;;;12.88;7.35;;;;;;;0.14;75.56;94475.31;5081924;28;20040;-73
2022/03/07 07:01:31;;;;;;;21.50;12.18;;;;;;;0.08;75.86;94478.97;5072449;28;20399;-74
2022/03/07 07:03:57;;;;;;;19.77;11.15;;;;;;;0.07;76.23;94476.50;5074793;28;20032;-74
2022/03/07 07:06:22;;;;;;;21.23;11.45;;;;;;;0.07;76.07;94473.94;5073346;28;20024;-73
2022/03/07 07:08:48;;;;;;;20.10;12.23;;;;;;;0.07;75.90;94473.94;5072618;28;20037;-73
2022/03/07 07:11:13;;;;;;;15.15;9.32;;;;;;;0.01;76.46;94471.69;5084076;28;20561;-73
2022/03/07 07:13:38;;;;;;;13.63;8.50;;;;;;;0.06;76.62;94474.88;5084715;28;20028;-73
2022/03/07 07:16:04;;;;;;;26.98;11.05;;;;;;;0.09;76.44;94479.81;5082258;28;20430;-73
2022/03/07 07:18:30;;;;;;;18.20;10.20;;;;;;;0.18;75.39;94476.81;5050431;28;20038;-78
2022/03/07 07:20:55;;;;;;;23.70;12.60;;;;;;;0.12;76.07;94480.50;5076972;28;20036;-75
2022/03/07 07:23:21;;;;;;;15.43;8.20;;;;;;;-0.01;76.44;94477.69;5074275;28;20033;-73
2022/03/07 07:25:47;;;;;;;16.58;9.90;;;;;;;0.01;76.81;94481.91;5072185;28;20037;-73
2022/03/07 07:28:13;;;;;;;18.70;10.40;;;;;;;0.14;76.39;94488.94;5056327;28;20036;-72
2022/03/07 07:30:38;;;;;;;11.48;7.55;;;;;;;0.14;75.59;94480.41;5071720;28;20028;-74
2022/03/07 07:33:04;;;;;;;20.05;10.35;;;;;;;0.13;76.11;94494.09;5071831;28;20047;-74
2022/03/07 07:35:29;;;;;;;9.75;6.05;;;;;;;0.14;74.73;94488.06;5070486;28;20108;-73
2022/03/07 07:37:55;;;;;;;13.10;7.63;;;;;;;0.13;74.87;94482.13;5054971;28;20040;-74
2022/03/07 07:40:21;;;;;;;12.45;7.05;;;;;;;0.09;75.32;94490.03;5071735;28;20056;-73
2022/03/07 07:42:46;;;;;;;13.07;8.80;;;;;;;0.04;75.54;94489.44;5072884;28;20025;-73
2022/03/07 07:45:12;;;;;;;10.02;6.38;;;;;;;0.01;75.41;94500.63;5072836;28;20035;-74
2022/03/07 07:47:39;;;;;;;17.33;9.98;;;;;;;0.12;76.07;94497.56;5071561;28;20037;-74
2022/03/07 07:50:06;;;;;;;16.63;9.73;;;;;;;0.16;76.24;94491.38;5072824;28;20048;-73
2022/03/07 07:52:31;;;;;;;16.55;9.05;;;;;;;0.32;75.40;94499.16;5072554;28;20482;-74
2022/03/07 07:54:57;;;;;;;15.43;8.77;;;;;;;0.24;74.73;94484.19;5072653;28;20032;-74
2022/03/07 07:57:22;;;;;;;13.75;8.02;;;;;;;0.30;74.85;94494.13;5071307;28;20579;-74
2022/03/07 07:59:47;;;;;;;13.25;8.15;;;;;;;0.22;75.14;94494.50;5071332;28;20392;-74
2022/03/07 08:02:13;;;;;;;14.23;8.07;;;;;;;0.23;74.32;94497.88;5071214;28;20521;-73
2022/03/07 08:04:38;;;;;;;13.80;7.90;;;;;;;0.28;74.96;94493.38;5071453;28;20040;-74
2022/03/07 08:07:04;;;;;;;11.57;6.50;;;;;;;0.22;73.64;94493.66;5072373;28;20029;-74
2022/03/07 08:09:29;;;;;;;9.15;5.72;;;;;;;0.16;73.85;94501.59;5070927;28;20040;-74
2022/03/07 08:11:54;;;;;;;13.23;8.80;;;;;;;0.16;74.74;94493.94;5054511;28;20029;-73
2022/03/07 08:14:20;;;;;;;17.92;9.70;;;;;;;0.16;75.56;94491.38;5072649;28;20029;-74
2022/03/07 08:16:46;;;;;;;12.50;7.63;;;;;;;0.27;74.38;94496.81;5070953;28;20050;-73
2022/03/07 08:19:11;;;;;;;9.88;6.90;;;;;;;0.26;74.07;94492.63;5072033;28;20040;-73
2022/03/07 08:21:37;;;;;;;9.80;6.70;;;;;;;0.42;74.75;94498.66;5072062;28;20021;-73
2022/03/07 08:24:02;;;;;;;13.95;7.90;;;;;;;0.48;73.77;94492.41;5054336;28;20033;-73
2022/03/07 08:26:28;;;;;;;12.68;7.90;;;;;;;0.50;73.26;94498.25;5070663;28;20487;-73
2022/03/07 08:28:53;;;;;;;17.75;10.85;;;;;;;0.55;73.40;94501.41;5070733;28;20506;-73
2022/03/07 08:31:19;;;;;;;26.10;12.40;;;;;;;0.56;72.98;94494.59;5070625;28;20120;-74
2022/03/07 08:33:44;;;;;;;29.02;17.70;;;;;;;0.54;73.09;94496.41;5072140;28;20032;-74
2022/03/07 08:36:09;;;;;;;24.58;15.50;;;;;;;0.58;73.19;94503.00;5053994;28;20021;-74
2022/03/07 08:38:35;;;;;;;19.48;11.50;;;;;;;0.55;72.77;94491.19;5071519;28;20052;-73
2022/03/07 08:41:01;;;;;;;20.85;12.35;;;;;;;0.68;73.38;94498.28;5071916;28;20047;-74
2022/03/07 08:43:26;;;;;;;14.95;9.50;;;;;;;0.65;73.27;94509.50;5053847;28;20031;-73
2022/03/07 08:45:52;;;;;;;11.23;7.45;;;;;;;0.64;72.91;94512.94;5070347;28;20438;-74
2022/03/07 08:48:17;;;;;;;9.65;6.40;;;;;;;0.68;72.29;94514.44;5069980;28;20419;-73
2022/03/07 08:50:42;;;;;;;9.93;7.07;;;;;;;0.65;72.50;94502.63;5070167;28;20265;-74
2022/03/07 08:53:08;;;;;;;13.65;9.35;;;;;;;0.71;72.91;94504.06;5070270;28;20032;-74
2022/03/07 08:55:33;;;;;;;15.77;11.15;;;;;;;0.79;72.70;94508.81;5070172;28;20033;-74
2022/03/07 08:57:59;;;;;;;21.63;14.48;;;;;;;0.71;72.26;94498.94;5070163;28;20050;-78
2022/03/07 09:00:25;;;;;;;21.15;15.02;;;;;;;0.84;72.22;94510.22;5070072;28;20032;-83
2022/03/07 09:02:50;;;;;;;16.30;12.02;;;;;;;0.84;71.50;94500.00;5070126;28;20032;-76
2022/03/07 09:05:16;;;;;;;19.52;16.95;;;;;;;0.96;71.53;94510.53;5071532;28;20414;-76
2022/03/07 09:07:41;;;;;;;14.07;11.73;;;;;;;0.99;72.49;94512.94;5071205;28;20479;-76
2022/03/07 09:10:07;;;;;;;28.65;17.38;;;;;;;1.03;72.02;94514.41;5053282;28;20430;-77
2022/03/07 09:12:32;;;;;;;18.15;11.52;;;;;;;1.06;72.06;94509.16;5069819;28;20497;-76
2022/03/07 09:14:59;;;;;;;12.13;8.73;;;;;;;1.18;72.01;94517.94;5071207;28;20028;-76
2022/03/07 09:17:24;;;;;;;14.43;10.35;;;;;;;1.20;71.35;94511.00;5053076;28;20020;-76
2022/03/07 09:19:50;;;;;;;25.85;17.92;;;;;;;1.20;71.10;94498.19;5053185;28;20120;-76
2022/03/07 09:22:15;;;;;;;38.00;28.30;;;;;;;1.21;71.30;94507.56;5052960;28;20078;-76
2022/03/07 09:24:41;;;;;;;20.42;18.38;;;;;;;1.25;71.20;94497.06;5053120;28;20027;-76
2022/03/07 09:27:06;;;;;;;12.32;9.77;;;;;;;1.30;71.37;94502.78;5069607;28;20028;-76
2022/03/07 09:29:32;;;;;;;14.60;10.88;;;;;;;1.36;70.00;94505.94;5053072;28;20380;-76
2022/03/07 09:31:57;;;;;;;11.35;8.60;;;;;;;1.32;70.05;94495.84;5069658;28;20540;-77
2022/03/07 09:34:22;;;;;;;16.30;10.88;;;;;;;1.37;70.06;94498.19;5053113;28;20029;-76
2022/03/07 09:36:48;;;;;;;17.27;11.68;;;;;;;1.40;70.71;94505.69;5069587;28;20036;-76
2022/03/07 09:39:13;;;;;;;10.40;6.60;;;;;;;1.34;70.00;94498.34;5069526;28;20048;-76
2022/03/07 09:41:42;;;;;;;11.50;6.72;;;;;;;1.34;70.46;94494.03;5052790;28;20033;-76
2022/03/07 09:44:07;;;;;;;13.48;10.95;;;;;;;1.40;70.30;94497.19;5053036;28;20383;-76
2022/03/07 09:46:32;;;;;;;10.68;9.02;;;;;;;1.39;70.33;94496.34;5070814;28;20028;-76
2022/03/07 09:48:58;;;;;;;14.02;12.55;;;;;;;1.44;70.27;94499.50;5052586;28;20047;-76
2022/03/07 09:51:24;;;;;;;11.98;9.98;;;;;;;1.47;70.03;94494.22;5036133;28;20043;-76
2022/03/07 09:53:49;;;;;;;10.27;8.45;;;;;;;1.49;69.61;94491.59;5069602;28;20036;-76
2022/03/07 09:56:14;;;;;;;27.88;15.02;;;;;;;1.47;69.78;94486.53;5069356;28;20029;-76
2022/03/07 09:58:40;;;;;;;19.08;13.25;;;;;;;1.51;70.30;94485.50;5070023;28;20040;-76
2022/03/07 10:01:09;;;;;;;13.13;9.95;;;;;;;1.58;70.55;94485.97;5056900;28;20036;-74
2022/03/07 10:03:35;;;;;;;9.40;6.28;;;;;;;1.60;70.09;94488.47;5073705;28;20025;-76
2022/03/07 10:06:00;;;;;;;9.30;7.07;;;;;;;1.59;70.30;94487.66;5040052;28;20090;-76
2022/03/07 10:08:27;;;;;;;8.13;5.85;;;;;;;1.65;70.46;94495.00;5073574;28;20402;-76
2022/03/07 10:10:53;;;;;;;16.13;10.82;;;;;;;1.72;70.40;94493.75;5074407;28;20028;-75
2022/03/07 10:13:18;;;;;;;13.68;9.00;;;;;;;1.72;69.93;94488.63;5073226;28;20036;-75
2022/03/07 10:15:53;;;;;;;10.55;6.80;;;;;;;1.73;69.60;94492.88;5056441;28;20032;-75
2022/03/07 10:18:18;;;;;;;11.07;7.53;;;;;;;1.73;70.33;94480.06;5073436;28;20555;-76
2022/03/07 10:20:51;;;;;;;14.93;9.48;;;;;;;1.84;69.75;94491.44;5074367;28;20048;-76
2022/03/07 10:23:17;;;;;;;12.05;7.90;;;;;;;1.81;69.52;94492.44;5073194;28;20021;-75
2022/03/07 10:25:44;;;;;;;13.20;8.38;;;;;;;1.81;69.42;94483.91;5073064;28;20426;-79
2022/03/07 10:28:09;;;;;;;13.77;8.50;;;;;;;1.81;69.72;94482.19;5073081;28;20086;-79
2022/03/07 10:30:35;;;;;;;11.13;7.03;;;;;;;1.83;69.90;94484.69;5056160;28;20044;-79
2022/03/07 10:33:09;;;;;;;9.88;6.63;;;;;;;1.84;69.37;94483.75;5072957;28;20025;-79
2022/03/07 10:35:41;;;;;;;9.55;6.63;;;;;;;1.84;69.63;94491.44;5072932;28;20032;-79
2022/03/07 10:38:13;;;;;;;8.95;6.25;;;;;;;1.88;69.30;94486.06;5072721;28;20491;-78
2022/03/07 10:40:41;;;;;;;9.95;6.88;;;;;;;1.94;69.55;94487.47;5072868;28;20028;-79
2022/03/07 10:43:06;;;;;;;11.70;7.43;;;;;;;1.99;69.01;94483.75;5072868;28;20043;-78
2022/03/07 10:45:42;;;;;;;9.07;6.30;;;;;;;1.90;68.70;94465.50;5072727;28;20028;-78
2022/03/07 10:48:08;;;;;;;9.02;6.72;;;;;;;1.96;68.59;94481.38;5041015;28;20079;-78
2022/03/07 10:50:33;;;;;;;10.65;6.75;;;;;;;1.94;69.39;94474.66;5072798;28;20479;-78
2022/03/07 10:53:01;;;;;;;10.18;8.02;;;;;;;1.99;69.12;94482.94;5055916;28;20094;-78
2022/03/07 10:55:27;;;;;;;10.70;7.82;;;;;;;2.02;69.24;94475.09;5072548;28;20020;-78
2022/03/07 10:58:02;;;;;;;11.98;8.50;;;;;;;2.04;69.69;94473.28;5055883;28;20089;-78
2022/03/07 11:00:29;;;;;;;11.57;8.75;;;;;;;2.06;69.56;94474.00;5072455;28;20097;-78
2022/03/07 11:02:54;;;;;;;15.63;11.02;;;;;;;1.97;68.94;94469.38;5072445;28;20090;-78
2022/03/07 11:05:20;;;;;;;22.10;14.75;;;;;;;2.06;69.59;94476.56;5072415;28;20020;-77
2022/03/07 11:07:47;;;;;;;22.77;15.80;;;;;;;2.06;70.40;94476.56;5055719;28;20043;-78
2022/03/07 11:10:13;;;;;;;23.48;16.35;;;;;;;2.02;70.13;94464.84;5071906;28;20050;-79
2022/03/07 11:12:39;;;;;;;21.20;14.27;;;;;;;2.05;69.87;94474.91;5055731;28;20521;-78
2022/03/07 11:15:08;;;;;;;17.58;12.45;;;;;;;1.99;69.26;94462.44;5072351;28;20028;-77
2022/03/07 11:17:38;;;;;;;16.58;11.60;;;;;;;1.96;69.02;94453.19;5072322;28;20055;-78
2022/03/07 11:20:04;;;;;;;21.60;13.20;;;;;;;2.02;69.07;94467.41;5072189;28;20029;-78
2022/03/07 11:22:30;;;;;;;18.38;12.10;;;;;;;1.99;68.43;94465.81;5072014;28;20170;-77
2022/03/07 11:24:55;;;;;;;22.92;15.75;;;;;;;1.98;68.96;94459.06;5055507;28;20032;-77
2022/03/07 11:27:20;;;;;;;24.05;16.83;;;;;;;1.98;69.42;94458.25;5071987;28;20392;-77